Time;durP1;ratioP1;P1;durP2;ratioP2;P2;SDS_P1;SDS_P2;PMS_P1;PMS_P2;Temp;Humidity;BMP_temperature;BMP_pressure;BME280_temperature;BME280_humidity;BME280_pressure;Samples;Min_cycle;Max_cycle;Signal;HPM_P1;HPM_P2
2024/01/13 00:01:19;;;;;;;51.10;45.60;;;;;;;-3.64;100.00;98225.31;107613;1275;25450;-78
2024/01/13 00:03:56;;;;;;;49.70;44.50;;;;;;;-3.63;100.00;98230.92;106801;1275;25468;-78
2024/01/13 00:06:24;;;;;;;50.00;44.90;;;;;;;-3.62;100.00;98226.10;106813;1267;23932;-75
2024/01/13 00:08:52;;;;;;;45.50;40.80;;;;;;;-3.64;100.00;98222.60;106822;1266;25461;-76
2024/01/13 00:11:20;;;;;;;50.00;44.90;;;;;;;-3.62;100.00;98233.31;106787;1276;22592;-75
2024/01/13 00:13:48;;;;;;;52.30;47.00;;;;;;;-3.61;100.00;98225.80;106778;1263;24215;-76
2024/01/13 00:16:16;;;;;;;51.50;46.50;;;;;;;-3.64;100.00;98223.62;106788;1273;25284;-77
2024/01/13 00:18:45;;;;;;;52.80;46.00;;;;;;;-3.59;100.00;98218.20;107017;1260;23148;-81
2024/01/13 00:21:13;;;;;;;47.10;42.40;;;;;;;-3.33;100.00;98216.37;107326;1275;22560;-82
2024/01/13 00:23:41;;;;;;;50.90;45.60;;;;;;;-3.21;100.00;98209.73;106911;1270;25627;-76
2024/01/13 00:26:09;;;;;;;52.50;47.50;;;;;;;-3.20;100.00;98208.80;106838;1261;22566;-77
2024/01/13 00:28:38;;;;;;;52.90;47.50;;;;;;;-3.30;100.00;98207.23;107135;1257;24302;-78
2024/01/13 00:31:06;;;;;;;52.30;46.60;;;;;;;-3.35;100.00;98208.47;106867;1275;23916;-77
2024/01/13 00:33:36;;;;;;;52.20;47.00;;;;;;;-3.37;100.00;98210.70;107012;1275;25435;-79
2024/01/13 00:36:05;;;;;;;53.30;47.60;;;;;;;-3.39;100.00;98204.41;107180;1275;22593;-78
2024/01/13 00:38:34;;;;;;;54.30;48.60;;;;;;;-3.38;100.00;98202.09;106962;1275;25361;-77
2024/01/13 00:41:05;;;;;;;53.90;48.30;;;;;;;-3.41;100.00;98197.91;107006;1265;25161;-75
2024/01/13 00:43:36;;;;;;;56.00;50.00;;;;;;;-3.46;100.00;98197.46;106892;1275;22615;-76
2024/01/13 00:46:05;;;;;;;56.60;50.90;;;;;;;-3.45;100.00;98193.21;106866;1268;22541;-77
2024/01/13 00:48:35;;;;;;;58.80;52.90;;;;;;;-3.46;100.00;98193.58;106808;1264;24462;-77
2024/01/13 00:51:11;;;;;;;52.60;47.10;;;;;;;-3.50;100.00;98195.76;106844;1260;22562;-78
2024/01/13 00:53:42;;;;;;;53.20;47.70;;;;;;;-3.54;100.00;98197.09;106911;1264;22595;-78
2024/01/13 00:56:11;;;;;;;50.70;45.40;;;;;;;-3.53;100.00;98193.45;106909;1273;22621;-77
2024/01/13 00:58:39;;;;;;;51.70;46.20;;;;;;;-3.51;100.00;98199.33;106863;1267;22783;-77
2024/01/13 01:01:13;;;;;;;48.70;43.60;;;;;;;-3.52;100.00;98192.48;106803;1274;22548;-78
2024/01/13 01:03:45;;;;;;;49.90;44.70;;;;;;;-3.55;100.00;98194.09;106913;1268;22997;-76
2024/01/13 01:06:15;;;;;;;45.20;40.40;;;;;;;-3.58;100.00;98187.97;106899;1275;22547;-76
2024/01/13 01:08:43;;;;;;;42.20;37.80;;;;;;;-3.56;100.00;98188.98;106819;1261;25404;-75
2024/01/13 01:11:11;;;;;;;45.70;40.70;;;;;;;-3.57;100.00;98189.55;106827;1275;23508;-76
2024/01/13 01:13:40;;;;;;;45.20;40.40;;;;;;;-3.57;100.00;98189.75;106935;1260;22549;-76
2024/01/13 01:16:09;;;;;;;47.20;42.10;;;;;;;-3.61;100.00;98188.17;106822;1276;22544;-76
2024/01/13 01:18:37;;;;;;;44.70;39.70;;;;;;;-3.60;100.00;98188.09;106742;1276;22529;-77
2024/01/13 01:21:14;;;;;;;44.80;39.80;;;;;;;-3.56;100.00;98189.14;106904;1264;25424;-77
2024/01/13 01:23:46;;;;;;;47.20;42.30;;;;;;;-3.55;100.00;98178.86;107153;1269;22545;-75
2024/01/13 01:26:16;;;;;;;45.30;40.50;;;;;;;-3.59;100.00;98177.77;106899;1260;24319;-76
2024/01/13 01:28:44;;;;;;;48.90;43.80;;;;;;;-3.60;100.00;98170.87;106889;1265;25417;-76
2024/01/13 01:31:12;;;;;;;45.20;40.60;;;;;;;-3.61;100.00;98171.23;107034;1267;22537;-78
2024/01/13 01:33:40;;;;;;;43.10;38.60;;;;;;;-3.65;100.00;98171.88;107009;1273;22677;-78
2024/01/13 01:36:09;;;;;;;43.70;39.00;;;;;;;-3.65;100.00;98166.56;106872;1265;25435;-77
2024/01/13 01:38:37;;;;;;;42.10;37.90;;;;;;;-3.64;100.00;98160.79;106842;1269;25292;-77
2024/01/13 01:41:16;;;;;;;41.20;37.00;;;;;;;-3.68;100.00;98161.34;106810;1270;24223;-78
2024/01/13 01:43:47;;;;;;;41.10;37.20;;;;;;;-3.73;100.00;98154.48;106844;1275;25202;-77
2024/01/13 01:46:19;;;;;;;37.10;33.40;;;;;;;-3.76;100.00;98155.40;106993;1268;25397;-77
2024/01/13 01:48:48;;;;;;;42.80;38.50;;;;;;;-3.77;100.00;98144.59;106927;1268;25255;-76
2024/01/13 01:51:18;;;;;;;42.20;38.30;;;;;;;-3.80;100.00;98148.40;106979;1268;23518;-77
2024/01/13 01:53:48;;;;;;;39.40;35.40;;;;;;;-3.82;100.00;98147.75;106907;1262;23371;-77
2024/01/13 01:56:22;;;;;;;38.90;35.00;;;;;;;-3.83;100.00;98145.30;106928;1254;24276;-77
2024/01/13 01:58:53;;;;;;;39.50;35.80;;;;;;;-3.82;100.00;98145.44;106749;1275;22562;-76
2024/01/13 02:01:23;;;;;;;40.50;36.70;;;;;;;-3.82;100.00;98142.11;106820;1261;22555;-76
2024/01/13 02:03:52;;;;;;;42.20;38.10;;;;;;;-3.79;100.00;98138.68;106767;1262;25420;-77
2024/01/13 02:06:22;;;;;;;40.80;36.90;;;;;;;-3.79;100.00;98132.73;106790;1265;26641;-76
2024/01/13 02:08:50;;;;;;;41.30;37.50;;;;;;;-3.80;100.00;98132.61;106808;1269;22561;-77
2024/01/13 02:11:19;;;;;;;38.00;34.40;;;;;;;-3.84;100.00;98133.29;106702;1268;22553;-78
2024/01/13 02:13:48;;;;;;;36.80;33.40;;;;;;;-3.83;100.00;98123.43;106867;1270;22535;-76
2024/01/13 02:16:16;;;;;;;38.10;34.50;;;;;;;-3.82;100.00;98128.59;106761;1273;23884;-76
2024/01/13 02:18:44;;;;;;;40.50;36.70;;;;;;;-3.82;100.00;98116.00;106831;1264;24283;-73
2024/01/13 02:21:14;;;;;;;41.60;37.80;;;;;;;-3.79;100.00;98116.16;106837;1255;25420;-77
2024/01/13 02:23:44;;;;;;;43.10;39.30;;;;;;;-3.80;100.00;98113.44;106794;1264;23383;-77
2024/01/13 02:26:12;;;;;;;40.30;36.50;;;;;;;-3.80;100.00;98112.23;106834;1275;22583;-77
2024/01/13 02:28:41;;;;;;;40.40;36.50;;;;;;;-3.79;100.00;98105.27;106934;1276;23890;-77
2024/01/13 02:31:17;;;;;;;38.10;34.50;;;;;;;-3.78;100.00;98109.72;107816;1276;22571;-76
2024/01/13 02:33:51;;;;;;;39.30;35.50;;;;;;;-3.79;100.00;98100.25;107758;1268;25321;-76
2024/01/13 02:36:23;;;;;;;37.40;34.00;;;;;;;-3.78;100.00;98094.89;107568;1275;24834;-76
2024/01/13 02:39:06;;;;;;;39.20;35.80;;;;;;;-3.75;100.00;98097.80;106924;1275;23232;-76
2024/01/13 02:41:34;;;;;;;41.00;37.30;;;;;;;-3.77;100.00;98091.25;106795;1267;22681;-74
2024/01/13 02:44:03;;;;;;;35.60;32.50;;;;;;;-3.79;100.00;98091.33;106776;1275;25249;-76
2024/01/13 02:46:30;;;;;;;35.10;32.10;;;;;;;-3.77;100.00;98089.02;106858;1275;24332;-76
2024/01/13 02:48:59;;;;;;;34.50;31.50;;;;;;;-3.76;100.00;98088.86;106895;1275;24358;-77
2024/01/13 02:51:28;;;;;;;35.20;32.20;;;;;;;-3.74;100.00;98082.13;106948;1260;22541;-77
2024/01/13 02:53:56;;;;;;;36.60;33.40;;;;;;;-3.72;100.00;98085.20;106856;1275;22776;-76
2024/01/13 02:56:24;;;;;;;33.60;30.60;;;;;;;-3.75;100.00;98092.22;106900;1275;22540;-76
2024/01/13 02:58:52;;;;;;;35.10;32.10;;;;;;;-3.75;100.00;98088.69;106878;1260;23077;-76
2024/01/13 03:01:20;;;;;;;34.20;31.30;;;;;;;-3.76;100.00;98087.44;106876;1275;22523;-77
2024/01/13 03:03:49;;;;;;;29.90;27.40;;;;;;;-3.72;100.00;98088.70;106884;1260;25426;-77
2024/01/13 03:06:23;;;;;;;34.40;31.60;;;;;;;-3.70;100.00;98077.39;106907;1275;22541;-77
2024/01/13 03:08:54;;;;;;;38.00;34.70;;;;;;;-3.69;100.00;98074.35;106889;1260;22523;-76
2024/01/13 03:11:23;;;;;;;33.00;30.10;;;;;;;-3.68;100.00;98078.09;106814;1265;23899;-77
2024/01/13 03:13:55;;;;;;;33.40;30.40;;;;;;;-3.64;100.00;98076.02;107035;1261;25297;-77
2024/01/13 03:16:24;;;;;;;32.40;29.70;;;;;;;-3.59;100.00;98070.50;106965;1273;24260;-77
2024/01/13 03:18:52;;;;;;;33.90;30.90;;;;;;;-3.57;100.00;98066.64;106970;1261;22566;-77
2024/01/13 03:21:20;;;;;;;33.50;30.60;;;;;;;-3.59;100.00;98071.52;106918;1275;26645;-77
2024/01/13 03:23:49;;;;;;;30.70;28.00;;;;;;;-3.59;100.00;98056.93;106804;1261;24195;-77
2024/01/13 03:26:17;;;;;;;29.70;27.10;;;;;;;-3.56;100.00;98058.15;106813;1267;25362;-77
2024/01/13 03:28:45;;;;;;;29.70;26.90;;;;;;;-3.50;100.00;98061.61;106740;1275;25274;-77
2024/01/13 03:31:13;;;;;;;28.80;26.20;;;;;;;-3.52;100.00;98058.39;106835;1275;22576;-77
2024/01/13 03:33:46;;;;;;;31.80;29.20;;;;;;;-3.50;100.00;98056.06;106852;1275;22662;-77
2024/01/13 03:36:17;;;;;;;29.60;27.10;;;;;;;-3.49;100.00;98051.12;106825;1274;25258;-77
2024/01/13 03:38:46;;;;;;;29.50;26.90;;;;;;;-3.51;100.00;98049.50;106817;1276;23404;-77
2024/01/13 03:41:18;;;;;;;29.40;26.80;;;;;;;-3.49;100.00;98043.99;106847;1275;24525;-77
2024/01/13 03:43:46;;;;;;;29.10;26.30;;;;;;;-3.45;100.00;98044.38;106898;1260;25533;-77
2024/01/13 03:46:15;;;;;;;28.30;25.90;;;;;;;-3.45;100.00;98042.70;106919;1261;22537;-77
2024/01/13 03:48:44;;;;;;;30.70;28.10;;;;;;;-3.46;100.00;98041.84;106929;1275;22534;-77
2024/01/13 03:51:13;;;;;;;27.30;24.90;;;;;;;-3.46;100.00;98044.59;106807;1262;24219;-77
2024/01/13 03:53:42;;;;;;;27.00;24.70;;;;;;;-3.44;100.00;98036.73;106953;1268;25438;-77
2024/01/13 03:56:10;;;;;;;25.60;23.40;;;;;;;-3.43;100.00;98027.97;106866;1275;23915;-76
2024/01/13 03:58:38;;;;;;;28.20;25.80;;;;;;;-3.40;100.00;98038.10;107086;1275;22547;-76
2024/01/13 04:01:08;;;;;;;27.90;25.60;;;;;;;-3.39;100.00;98039.48;106844;1265;26652;-77
2024/01/13 04:03:37;;;;;;;27.50;25.20;;;;;;;-3.39;100.00;98029.63;107010;1262;24667;-77
2024/01/13 04:06:06;;;;;;;25.80;23.40;;;;;;;-3.37;100.00;98023.63;107080;1272;25030;-77
2024/01/13 04:08:34;;;;;;;24.90;22.60;;;;;;;-3.34;100.00;98024.14;106975;1273;25406;-77
2024/01/13 04:11:07;;;;;;;27.90;25.50;;;;;;;-3.35;100.00;98032.09;106879;1265;22663;-75
2024/01/13 04:13:37;;;;;;;26.10;23.90;;;;;;;-3.36;100.00;98030.15;106878;1262;24213;-77
2024/01/13 04:16:05;;;;;;;26.80;24.60;;;;;;;-3.35;100.00;98024.88;106814;1275;22538;-77
2024/01/13 04:18:33;;;;;;;25.40;23.20;;;;;;;-3.32;100.00;98026.08;106831;1260;22588;-76
2024/01/13 04:21:02;;;;;;;25.50;23.30;;;;;;;-3.29;100.00;98028.92;106885;1275;25494;-77
2024/01/13 04:23:47;;;;;;;24.00;22.00;;;;;;;-3.27;100.00;98028.10;107013;1275;22542;-74
2024/01/13 04:26:16;;;;;;;26.80;24.50;;;;;;;-3.25;100.00;98019.26;106962;1275;22671;-77
2024/01/13 04:28:44;;;;;;;25.90;23.50;;;;;;;-3.25;100.00;98020.02;106868;1275;24255;-79
2024/01/13 04:31:12;;;;;;;25.10;23.00;;;;;;;-3.23;100.00;98022.65;106872;1253;22531;-79
2024/01/13 04:33:40;;;;;;;24.50;22.40;;;;;;;-3.19;100.00;98020.54;106881;1275;22633;-76
2024/01/13 04:36:08;;;;;;;28.20;25.90;;;;;;;-3.17;100.00;98025.36;106944;1275;22552;-76
2024/01/13 04:38:36;;;;;;;26.50;24.20;;;;;;;-3.16;100.00;98023.98;106941;1275;25572;-77
2024/01/13 04:41:04;;;;;;;24.40;22.30;;;;;;;-3.16;100.00;98025.92;106942;1275;22789;-76
2024/01/13 04:43:33;;;;;;;24.30;22.10;;;;;;;-3.13;100.00;98017.35;106864;1271;22561;-77
2024/01/13 04:46:01;;;;;;;25.50;23.20;;;;;;;-3.09;100.00;98017.43;106899;1275;22549;-76
2024/01/13 04:48:29;;;;;;;24.90;22.60;;;;;;;-3.07;100.00;98014.02;106904;1261;22552;-77
2024/01/13 04:50:57;;;;;;;24.30;22.20;;;;;;;-3.08;100.00;98013.15;106846;1275;24211;-76
2024/01/13 04:53:25;;;;;;;23.70;21.60;;;;;;;-3.05;100.00;98011.46;106818;1264;23137;-76
2024/01/13 04:55:54;;;;;;;25.40;22.90;;;;;;;-3.03;100.00;98008.23;106860;1275;22549;-77
2024/01/13 04:58:22;;;;;;;24.00;21.90;;;;;;;-3.03;100.00;98001.21;106840;1275;25540;-76
2024/01/13 05:00:50;;;;;;;22.40;20.20;;;;;;;-2.97;100.00;98007.29;106917;1273;25304;-76
2024/01/13 05:03:18;;;;;;;26.40;24.10;;;;;;;-2.97;100.00;97993.66;106886;1261;22664;-76
2024/01/13 05:05:46;;;;;;;24.30;22.10;;;;;;;-2.96;100.00;97994.13;106935;1261;22555;-76
2024/01/13 05:08:15;;;;;;;24.30;22.00;;;;;;;-2.97;100.00;97993.58;106738;1276;24471;-76
2024/01/13 05:10:43;;;;;;;22.80;20.70;;;;;;;-2.95;100.00;97992.64;106908;1264;25302;-79
2024/01/13 05:13:11;;;;;;;22.90;20.90;;;;;;;-2.93;100.00;97990.04;107070;1275;22533;-79
2024/01/13 05:15:39;;;;;;;23.50;21.50;;;;;;;-2.90;100.00;97979.52;106930;1268;22544;-77
2024/01/13 05:18:07;;;;;;;23.80;21.50;;;;;;;-2.88;100.00;97979.42;106852;1276;22541;-77
2024/01/13 05:20:35;;;;;;;22.60;20.40;;;;;;;-2.89;100.00;97978.52;106885;1276;22487;-77
2024/01/13 05:23:04;;;;;;;22.60;20.30;;;;;;;-2.90;100.00;97975.20;106988;1275;22539;-77
2024/01/13 05:25:32;;;;;;;21.00;19.00;;;;;;;-2.89;100.00;97972.27;106954;1276;22527;-77
2024/01/13 05:28:03;;;;;;;22.80;20.70;;;;;;;-2.86;100.00;97972.07;106924;1263;22545;-76
2024/01/13 05:30:34;;;;;;;25.50;23.20;;;;;;;-2.88;100.00;97973.05;106775;1276;22537;-75
2024/01/13 05:33:02;;;;;;;24.30;22.00;;;;;;;-2.87;100.00;97970.77;106822;1261;22537;-77
2024/01/13 05:35:30;;;;;;;21.90;19.80;;;;;;;-2.86;100.00;97977.38;106829;1276;22562;-76
2024/01/13 05:37:58;;;;;;;22.40;20.30;;;;;;;-2.86;100.00;97979.77;106791;1268;22588;-77
2024/01/13 05:40:26;;;;;;;22.70;20.60;;;;;;;-2.84;100.00;97978.67;106784;1276;24261;-78
2024/01/13 05:42:54;;;;;;;24.80;22.50;;;;;;;-2.82;100.00;97984.91;106815;1275;22546;-76
2024/01/13 05:45:22;;;;;;;27.80;25.00;;;;;;;-2.84;100.00;97983.64;106910;1275;24497;-77
2024/01/13 05:47:51;;;;;;;25.40;23.00;;;;;;;-2.84;100.00;97986.66;106885;1265;24204;-77
2024/01/13 05:50:19;;;;;;;25.60;23.00;;;;;;;-2.84;100.00;97990.06;106943;1275;22542;-77
2024/01/13 05:52:47;;;;;;;25.80;23.30;;;;;;;-2.82;100.00;97990.14;106874;1255;23132;-77
2024/01/13 05:55:15;;;;;;;23.20;21.00;;;;;;;-2.81;100.00;97993.30;106900;1275;23886;-77
2024/01/13 05:57:43;;;;;;;23.30;21.10;;;;;;;-2.81;100.00;97998.77;106894;1264;23248;-79
2024/01/13 06:00:11;;;;;;;23.40;21.40;;;;;;;-2.81;100.00;97994.93;107351;1264;24782;-78
2024/01/13 06:02:39;;;;;;;26.90;24.40;;;;;;;-2.80;100.00;97997.19;107022;1268;23075;-77
2024/01/13 06:05:08;;;;;;;26.20;23.90;;;;;;;-2.80;100.00;97990.78;106912;1265;25698;-77
2024/01/13 06:07:37;;;;;;;25.30;22.80;;;;;;;-2.85;100.00;97988.94;106935;1262;22666;-77
2024/01/13 06:10:11;;;;;;;25.70;23.20;;;;;;;-2.80;100.00;97994.95;106873;1262;25457;-77
2024/01/13 06:12:39;;;;;;;23.90;21.60;;;;;;;-2.78;100.00;97997.27;106867;1265;25373;-77
2024/01/13 06:15:08;;;;;;;29.60;26.80;;;;;;;-2.76;100.00;97997.73;106826;1275;24285;-78
2024/01/13 06:17:36;;;;;;;27.50;24.90;;;;;;;-2.79;100.00;97995.31;106895;1275;22554;-77
2024/01/13 06:20:05;;;;;;;25.90;23.50;;;;;;;-2.77;100.00;97992.10;106832;1259;25417;-76
2024/01/13 06:22:34;;;;;;;26.00;23.40;;;;;;;-2.77;100.00;97991.70;106806;1276;23074;-76
2024/01/13 06:25:02;;;;;;;25.00;22.90;;;;;;;-2.75;100.00;97986.00;106785;1275;22545;-78
2024/01/13 06:27:30;;;;;;;25.20;23.00;;;;;;;-2.71;100.00;97977.05;106842;1276;23921;-79
2024/01/13 06:29:58;;;;;;;28.70;26.00;;;;;;;-2.70;100.00;97972.35;106835;1275;24250;-78
2024/01/13 06:32:26;;;;;;;26.80;24.10;;;;;;;-2.72;100.00;97970.85;106704;1267;24219;-77
2024/01/13 06:34:54;;;;;;;33.00;29.90;;;;;;;-2.70;100.00;97973.45;106921;1262;25682;-77
2024/01/13 06:37:26;;;;;;;31.70;28.70;;;;;;;-2.68;100.00;97972.23;106838;1276;25276;-78
2024/01/13 06:39:53;;;;;;;43.20;39.20;;;;;;;-2.65;100.00;97970.06;106845;1252;24315;-77
2024/01/13 06:42:22;;;;;;;63.50;57.60;;;;;;;-2.63;100.00;97962.98;106846;1262;22534;-78
2024/01/13 06:44:50;;;;;;;50.70;46.00;;;;;;;-2.63;100.00;97962.88;106853;1275;25497;-77
2024/01/13 06:47:18;;;;;;;36.60;33.10;;;;;;;-2.60;100.00;97957.60;106956;1275;25361;-78
2024/01/13 06:49:46;;;;;;;28.90;26.20;;;;;;;-2.58;100.00;97958.16;106964;1275;22650;-77
2024/01/13 06:52:14;;;;;;;28.10;25.60;;;;;;;-2.55;100.00;97956.56;106951;1275;22567;-78
2024/01/13 06:54:42;;;;;;;27.60;25.10;;;;;;;-2.54;100.00;97960.77;106896;1275;25497;-78
2024/01/13 06:57:10;;;;;;;25.80;23.20;;;;;;;-2.56;100.00;97955.41;107270;1275;22533;-78
2024/01/13 06:59:38;;;;;;;25.90;23.40;;;;;;;-2.56;100.00;97964.19;106995;1275;25530;-77
2024/01/13 07:02:06;;;;;;;27.60;25.00;;;;;;;-2.52;100.00;97966.47;107815;1275;25503;-80
2024/01/13 07:04:37;;;;;;;29.90;27.10;;;;;;;-2.48;100.00;97967.34;106986;1275;22657;-79
2024/01/13 07:07:05;;;;;;;29.90;27.10;;;;;;;-2.50;100.00;97971.02;106928;1275;24153;-79
2024/01/13 07:09:33;;;;;;;28.80;25.90;;;;;;;-2.50;100.00;97972.51;106794;1275;22606;-79
2024/01/13 07:12:01;;;;;;;24.30;21.90;;;;;;;-2.50;100.00;97972.19;106892;1275;25077;-79
2024/01/13 07:14:31;;;;;;;24.40;22.20;;;;;;;-2.50;100.00;97973.61;107112;1275;23387;-77
2024/01/13 07:16:59;;;;;;;24.90;22.50;;;;;;;-2.46;100.00;97977.00;106982;1267;22532;-78
2024/01/13 07:19:26;;;;;;;26.20;23.80;;;;;;;-2.45;100.00;97974.66;106965;1267;23900;-77
2024/01/13 07:21:55;;;;;;;26.20;23.90;;;;;;;-2.45;100.00;97978.89;106822;1253;24382;-77
2024/01/13 07:24:24;;;;;;;25.90;23.60;;;;;;;-2.46;100.00;97976.18;106761;1275;22543;-79
2024/01/13 07:26:52;;;;;;;25.10;22.70;;;;;;;-2.46;100.00;97973.58;106850;1268;22945;-77
2024/01/13 07:29:21;;;;;;;26.60;24.20;;;;;;;-2.42;100.00;97982.98;106804;1268;25315;-78
2024/01/13 07:31:49;;;;;;;26.20;23.90;;;;;;;-2.40;100.00;97986.29;106861;1266;22542;-77
2024/01/13 07:34:17;;;;;;;25.40;23.10;;;;;;;-2.41;100.00;97977.77;106629;1271;22668;-77
2024/01/13 07:36:45;;;;;;;25.30;22.90;;;;;;;-2.42;100.00;97973.14;106910;1275;25239;-78
2024/01/13 07:39:14;;;;;;;26.00;23.60;;;;;;;-2.39;100.00;97972.55;106798;1275;22991;-77
2024/01/13 07:41:43;;;;;;;26.50;24.10;;;;;;;-2.37;100.00;97966.34;106766;1275;22535;-76
2024/01/13 07:44:11;;;;;;;31.10;28.30;;;;;;;-2.35;100.00;97963.48;106914;1260;25435;-78
2024/01/13 07:46:43;;;;;;;29.20;26.50;;;;;;;-2.36;100.00;97965.14;106718;1271;22656;-77
2024/01/13 07:49:11;;;;;;;26.70;24.30;;;;;;;-2.31;100.00;97963.42;106849;1261;24357;-78
2024/01/13 07:51:39;;;;;;;27.00;24.50;;;;;;;-2.29;100.00;97963.11;106874;1273;23420;-77
2024/01/13 07:54:08;;;;;;;24.60;22.30;;;;;;;-2.28;100.00;97964.98;106825;1269;25386;-78
2024/01/13 07:56:36;;;;;;;28.10;25.50;;;;;;;-2.25;100.00;97957.80;106808;1272;22609;-77
2024/01/13 07:59:04;;;;;;;33.80;30.20;;;;;;;-2.19;100.00;97956.05;106859;1260;23214;-78
2024/01/13 08:01:32;;;;;;;30.30;27.20;;;;;;;-2.17;100.00;97957.95;106971;1275;22531;-77
2024/01/13 08:04:06;;;;;;;29.30;26.40;;;;;;;-2.18;100.00;97956.23;106970;1267;24212;-79
2024/01/13 08:06:35;;;;;;;29.10;26.20;;;;;;;-2.15;100.00;97962.60;106870;1262;25377;-78
2024/01/13 08:09:04;;;;;;;29.40;26.40;;;;;;;-2.15;100.00;97968.73;106930;1267;22609;-78
2024/01/13 08:11:33;;;;;;;30.60;27.50;;;;;;;-2.14;100.00;97959.95;106801;1274;23337;-80
2024/01/13 08:14:08;;;;;;;31.90;28.90;;;;;;;-2.14;100.00;97952.98;106865;1275;22542;-79
2024/01/13 08:16:36;;;;;;;31.20;28.20;;;;;;;-2.21;100.00;97951.76;106656;1266;24253;-79
2024/01/13 08:19:04;;;;;;;28.60;25.60;;;;;;;-2.13;100.00;97958.23;106805;1275;22535;-78
2024/01/13 08:21:32;;;;;;;29.50;26.30;;;;;;;-2.10;100.00;97956.38;106827;1275;24334;-78
2024/01/13 08:24:11;;;;;;;27.60;25.00;;;;;;;-2.06;100.00;97949.48;106800;1275;22523;-79
2024/01/13 08:26:39;;;;;;;28.10;25.50;;;;;;;-2.04;100.00;97953.65;106891;1264;22619;-78
2024/01/13 08:29:09;;;;;;;27.50;24.80;;;;;;;-2.01;100.00;97956.80;107095;1262;23155;-78
2024/01/13 08:31:37;;;;;;;25.30;22.80;;;;;;;-2.02;100.00;97953.67;106892;1264;24334;-79
2024/01/13 08:34:09;;;;;;;27.80;25.10;;;;;;;-2.00;100.00;97945.45;106869;1262;22557;-78
2024/01/13 08:36:43;;;;;;;28.50;25.80;;;;;;;-1.94;100.00;97950.61;106854;1266;22525;-79
2024/01/13 08:39:11;;;;;;;29.10;26.20;;;;;;;-1.97;100.00;97944.39;106827;1262;22546;-79
2024/01/13 08:41:39;;;;;;;28.80;25.90;;;;;;;-2.00;100.00;97947.45;106971;1266;22854;-77
2024/01/13 08:44:08;;;;;;;26.40;23.80;;;;;;;-1.98;100.00;97949.10;106917;1268;23936;-76
2024/01/13 08:46:36;;;;;;;31.60;28.50;;;;;;;-1.94;100.00;97950.33;106879;1273;23874;-77
2024/01/13 08:49:04;;;;;;;31.20;28.20;;;;;;;-1.91;100.00;97945.37;106848;1264;24216;-77
2024/01/13 08:51:34;;;;;;;33.10;29.80;;;;;;;-1.94;100.00;97941.05;106904;1271;25246;-79
2024/01/13 08:54:04;;;;;;;30.00;26.80;;;;;;;-1.90;100.00;97943.86;106959;1252;24216;-78
2024/01/13 08:56:36;;;;;;;38.70;31.40;;;;;;;-1.87;100.00;97940.95;106937;1275;25293;-78
2024/01/13 08:59:09;;;;;;;49.20;37.50;;;;;;;-1.86;100.00;97930.58;107070;1261;22657;-77
2024/01/13 09:01:37;;;;;;;40.10;32.90;;;;;;;-1.86;100.00;97928.98;106908;1255;24209;-77
2024/01/13 09:04:08;;;;;;;31.60;28.20;;;;;;;-1.83;100.00;97928.96;107020;1276;22632;-79
2024/01/13 09:06:40;;;;;;;33.50;30.00;;;;;;;-1.78;100.00;97926.72;106671;1271;22625;-77
2024/01/13 09:09:10;;;;;;;33.40;30.20;;;;;;;-1.74;100.00;97923.92;106964;1275;22557;-77
2024/01/13 09:11:41;;;;;;;31.00;28.00;;;;;;;-1.74;100.00;97927.05;106980;1259;22545;-78
2024/01/13 09:14:13;;;;;;;32.60;29.40;;;;;;;-1.74;100.00;97926.89;106982;1265;23929;-77
2024/01/13 09:16:46;;;;;;;28.00;25.20;;;;;;;-1.73;100.00;97931.69;106980;1268;22533;-78
2024/01/13 09:19:14;;;;;;;28.50;25.80;;;;;;;-1.69;100.00;97930.36;106837;1273;24279;-78
2024/01/13 09:21:43;;;;;;;26.50;24.10;;;;;;;-1.67;100.00;97934.09;106850;1270;22544;-78
2024/01/13 09:24:16;;;;;;;28.90;26.10;;;;;;;-1.70;100.00;97927.98;106766;1275;22977;-78
2024/01/13 09:26:46;;;;;;;29.50;26.50;;;;;;;-1.70;100.00;97925.70;106851;1268;24250;-78
2024/01/13 09:29:17;;;;;;;32.70;29.50;;;;;;;-1.68;100.00;97926.65;106775;1261;22559;-78
2024/01/13 09:31:49;;;;;;;54.10;45.80;;;;;;;-1.62;100.00;97921.92;106875;1268;26631;-77
2024/01/13 09:34:20;;;;;;;42.40;37.90;;;;;;;-1.59;100.00;97921.73;106926;1275;22639;-77
2024/01/13 09:36:49;;;;;;;36.60;32.70;;;;;;;-1.60;100.00;97917.64;106789;1267;22551;-78
2024/01/13 09:39:21;;;;;;;33.20;29.70;;;;;;;-1.58;100.00;97909.29;106722;1262;25373;-78
2024/01/13 09:41:54;;;;;;;31.80;28.60;;;;;;;-1.55;100.00;97913.07;106837;1275;24364;-76
2024/01/13 09:44:23;;;;;;;31.20;28.20;;;;;;;-1.52;100.00;97912.48;106933;1270;22999;-77
2024/01/13 09:46:55;;;;;;;34.20;30.90;;;;;;;-1.50;100.00;97905.30;106883;1275;25298;-78
2024/01/13 09:49:26;;;;;;;33.40;30.10;;;;;;;-1.47;100.00;97902.05;106943;1269;22571;-76
2024/01/13 09:51:55;;;;;;;42.00;36.50;;;;;;;-1.43;100.00;97895.94;106893;1275;22533;-78
2024/01/13 09:54:24;;;;;;;36.10;32.50;;;;;;;-1.35;100.00;97889.27;107083;1271;171651;-77
2024/01/13 09:56:55;;;;;;;40.40;36.00;;;;;;;-1.28;100.00;97885.76;107007;1275;22548;-78
2024/01/13 09:59:28;;;;;;;34.60;31.20;;;;;;;-1.25;100.00;97878.39;106906;1276;24042;-77
2024/01/13 10:02:02;;;;;;;30.10;27.30;;;;;;;-1.23;100.00;97870.89;107049;1267;22561;-78
2024/01/13 10:04:37;;;;;;;;;;;;;;;-1.18;100.00;97869.92;106828;1275;24904;-76
2024/01/13 10:07:10;;;;;;;32.50;28.70;;;;;;;-1.16;100.00;97871.14;106908;1273;22533;-76
2024/01/13 10:09:40;;;;;;;33.40;30.00;;;;;;;-1.17;100.00;97871.50;106737;1265;22556;-76
2024/01/13 10:12:08;;;;;;;35.80;30.60;;;;;;;-1.18;100.00;97871.14;106838;1265;25295;-76
2024/01/13 10:14:42;;;;;;;31.30;28.20;;;;;;;-1.16;100.00;97867.79;106879;1275;22578;-77
2024/01/13 10:17:14;;;;;;;31.70;28.60;;;;;;;-1.14;100.00;97867.84;106791;1264;24344;-77
2024/01/13 10:19:43;;;;;;;39.40;35.30;;;;;;;-1.14;100.00;97862.89;106826;1270;22568;-77
2024/01/13 10:22:15;;;;;;;36.20;32.40;;;;;;;-1.15;100.00;97858.25;106780;1263;22647;-77
2024/01/13 10:24:44;;;;;;;31.50;27.10;;;;;;;-1.12;100.00;97853.63;106859;1270;22585;-75
2024/01/13 10:27:12;;;;;;;40.50;36.60;;;;;;;-1.07;100.00;97848.95;106812;1275;22529;-78
2024/01/13 10:29:44;;;;;;;37.80;34.20;;;;;;;-1.09;100.00;97846.58;106778;1275;23128;-77
2024/01/13 10:32:12;;;;;;;37.00;33.20;;;;;;;-1.10;100.00;97845.73;106890;1271;22660;-77
2024/01/13 10:34:48;;;;;;;32.00;28.50;;;;;;;-1.08;100.00;97848.29;106912;1269;24263;-77
2024/01/13 10:37:17;;;;;;;35.60;32.10;;;;;;;-1.04;100.00;97848.50;106873;1262;22667;-77
2024/01/13 10:39:45;;;;;;;30.70;27.70;;;;;;;-1.02;100.00;97853.73;106762;1274;25251;-77
2024/01/13 10:42:16;;;;;;;31.10;27.70;;;;;;;-1.03;100.00;97843.58;106786;1275;22916;-78
2024/01/13 10:44:57;;;;;;;31.00;27.80;;;;;;;-1.03;100.00;97840.65;106761;1263;23242;-76
2024/01/13 10:47:30;;;;;;;33.60;30.10;;;;;;;-0.99;100.00;97843.13;106881;1262;23894;-76
2024/01/13 10:49:59;;;;;;;34.00;30.70;;;;;;;-0.96;100.00;97844.89;107102;1274;22533;-76
2024/01/13 10:52:48;;;;;;;31.50;28.20;;;;;;;-0.97;100.00;97836.08;106933;1265;22533;-77
2024/01/13 10:55:16;;;;;;;35.90;27.50;;;;;;;-0.97;100.00;97835.78;106977;1272;24371;-75
2024/01/13 10:57:47;;;;;;;29.80;26.90;;;;;;;-0.95;100.00;97834.70;107056;1265;22565;-77
2024/01/13 11:00:17;;;;;;;32.00;28.70;;;;;;;-0.96;100.00;97835.83;106982;1271;25578;-76
2024/01/13 11:02:47;;;;;;;33.40;29.90;;;;;;;-0.98;100.00;97829.08;106858;1275;22645;-76
2024/01/13 11:05:18;;;;;;;30.30;27.30;;;;;;;-0.99;100.00;97825.25;106925;1262;22537;-78
2024/01/13 11:07:46;;;;;;;30.00;27.20;;;;;;;-0.98;100.00;97822.73;106997;1269;25300;-76
2024/01/13 11:10:28;;;;;;;37.20;33.30;;;;;;;-0.98;100.00;97810.77;106812;1259;25378;-77
2024/01/13 11:13:02;;;;;;;33.80;30.20;;;;;;;-1.00;100.00;97808.92;106861;1272;24009;-77